sensor_id;sensor_type;location;lat;lon;timestamp;pressure;altitude;pressure_sealevel;temperature;humidity
75298;BME280;63896;45.990;18.688;2023-04-24T00:01:28;99937.53;;;12.51;69.07
75298;BME280;63896;45.990;18.688;2023-04-24T00:04:32;99940.59;;;12.43;68.66
75298;BME280;63896;45.990;18.688;2023-04-24T00:07:35;99928.69;;;12.34;69.33
75298;BME280;63896;45.990;18.688;2023-04-24T00:10:38;99918.75;;;12.29;69.63
75298;BME280;63896;45.990;18.688;2023-04-24T00:13:41;99919.03;;;12.28;69.29
75298;BME280;63896;45.990;18.688;2023-04-24T00:16:44;99917.72;;;12.30;68.98
75298;BME280;63896;45.990;18.688;2023-04-24T00:19:48;99911.25;;;12.26;70.25
75298;BME280;63896;45.990;18.688;2023-04-24T00:22:53;99910.94;;;12.23;70.14
75298;BME280;63896;45.990;18.688;2023-04-24T00:25:55;99903.09;;;12.16;70.68
75298;BME280;63896;45.990;18.688;2023-04-24T00:28:58;99902.41;;;12.09;70.97
75298;BME280;63896;45.990;18.688;2023-04-24T00:32:02;99911.19;;;12.10;71.06
75298;BME280;63896;45.990;18.688;2023-04-24T00:35:07;99908.19;;;12.06;71.00
75298;BME280;63896;45.990;18.688;2023-04-24T00:38:10;99907.38;;;12.06;71.12
75298;BME280;63896;45.990;18.688;2023-04-24T00:41:13;99901.19;;;12.00;71.24
75298;BME280;63896;45.990;18.688;2023-04-24T00:44:16;99907.31;;;11.89;71.61
75298;BME280;63896;45.990;18.688;2023-04-24T00:47:19;99907.44;;;11.82;72.28
75298;BME280;63896;45.990;18.688;2023-04-24T00:50:23;99908.94;;;11.78;72.16
75298;BME280;63896;45.990;18.688;2023-04-24T00:53:26;99908.47;;;11.70;72.85
75298;BME280;63896;45.990;18.688;2023-04-24T00:56:30;99914.97;;;11.62;72.60
75298;BME280;63896;45.990;18.688;2023-04-24T00:59:33;99911.94;;;11.59;73.26
75298;BME280;63896;45.990;18.688;2023-04-24T01:02:38;99912.19;;;11.57;72.78
75298;BME280;63896;45.990;18.688;2023-04-24T01:05:43;99906.19;;;11.62;72.96
75298;BME280;63896;45.990;18.688;2023-04-24T01:08:46;99903.53;;;11.62;73.05
75298;BME280;63896;45.990;18.688;2023-04-24T01:11:50;99906.19;;;11.50;73.16
75298;BME280;63896;45.990;18.688;2023-04-24T01:14:54;99915.75;;;11.39;74.24
75298;BME280;63896;45.990;18.688;2023-04-24T01:17:57;99911.03;;;11.41;74.72
75298;BME280;63896;45.990;18.688;2023-04-24T01:21:03;99903.63;;;11.43;75.43
75298;BME280;63896;45.990;18.688;2023-04-24T01:24:07;99912.31;;;11.39;74.81
75298;BME280;63896;45.990;18.688;2023-04-24T01:27:10;99913.81;;;11.35;75.83
75298;BME280;63896;45.990;18.688;2023-04-24T01:30:14;99904.91;;;11.29;75.69
75298;BME280;63896;45.990;18.688;2023-04-24T01:33:17;99909.19;;;11.30;76.05
75298;BME280;63896;45.990;18.688;2023-04-24T01:36:21;99912.88;;;11.29;76.05
75298;BME280;63896;45.990;18.688;2023-04-24T01:39:26;99913.34;;;11.38;75.76
75298;BME280;63896;45.990;18.688;2023-04-24T01:42:31;99905.59;;;11.48;76.13
75298;BME280;63896;45.990;18.688;2023-04-24T01:45:34;99907.34;;;11.42;76.20
75298;BME280;63896;45.990;18.688;2023-04-24T01:48:39;99911.94;;;11.47;75.28
75298;BME280;63896;45.990;18.688;2023-04-24T01:51:42;99914.97;;;11.51;75.36
75298;BME280;63896;45.990;18.688;2023-04-24T01:54:45;99900.75;;;11.45;75.66
75298;BME280;63896;45.990;18.688;2023-04-24T01:57:48;99902.47;;;11.39;75.54
75298;BME280;63896;45.990;18.688;2023-04-24T02:00:52;99899.81;;;11.39;75.23
75298;BME280;63896;45.990;18.688;2023-04-24T02:03:55;99899.38;;;11.31;75.66
75298;BME280;63896;45.990;18.688;2023-04-24T02:06:58;99893.13;;;11.25;76.08
75298;BME280;63896;45.990;18.688;2023-04-24T02:10:01;99887.94;;;11.19;76.91
75298;BME280;63896;45.990;18.688;2023-04-24T02:13:05;99897.53;;;11.20;77.38
75298;BME280;63896;45.990;18.688;2023-04-24T02:16:08;99892.91;;;11.15;77.29
75298;BME280;63896;45.990;18.688;2023-04-24T02:19:11;99883.31;;;11.14;77.80
75298;BME280;63896;45.990;18.688;2023-04-24T02:22:13;99876.38;;;11.13;77.92
75298;BME280;63896;45.990;18.688;2023-04-24T02:25:16;99877.78;;;11.16;78.25
75298;BME280;63896;45.990;18.688;2023-04-24T02:28:19;99870.03;;;11.14;78.58
75298;BME280;63896;45.990;18.688;2023-04-24T02:31:22;99879.97;;;11.07;79.17
75298;BME280;63896;45.990;18.688;2023-04-24T02:34:25;99883.78;;;11.23;78.84
75298;BME280;63896;45.990;18.688;2023-04-24T02:37:28;99882.25;;;11.04;79.46
75298;BME280;63896;45.990;18.688;2023-04-24T02:40:31;99869.81;;;11.04;79.42
75298;BME280;63896;45.990;18.688;2023-04-24T02:43:34;99872.09;;;11.00;79.02
75298;BME280;63896;45.990;18.688;2023-04-24T02:46:37;99869.19;;;10.90;79.65
75298;BME280;63896;45.990;18.688;2023-04-24T02:49:40;99867.84;;;10.99;79.65
75298;BME280;63896;45.990;18.688;2023-04-24T02:52:45;99859.50;;;10.84;80.11
75298;BME280;63896;45.990;18.688;2023-04-24T02:55:48;99857.41;;;10.86;80.42
75298;BME280;63896;45.990;18.688;2023-04-24T02:58:51;99866.31;;;10.80;80.58
75298;BME280;63896;45.990;18.688;2023-04-24T03:01:54;99861.69;;;10.76;80.20
75298;BME280;63896;45.990;18.688;2023-04-24T03:04:57;99862.00;;;10.68;80.51
75298;BME280;63896;45.990;18.688;2023-04-24T03:08:00;99860.63;;;10.65;81.07
75298;BME280;63896;45.990;18.688;2023-04-24T03:11:03;99846.28;;;10.55;81.68
75298;BME280;63896;45.990;18.688;2023-04-24T03:14:06;99855.16;;;10.48;81.87
75298;BME280;63896;45.990;18.688;2023-04-24T03:17:09;99858.47;;;10.44;82.15
75298;BME280;63896;45.990;18.688;2023-04-24T03:20:12;99864.03;;;10.42;82.30
75298;BME280;63896;45.990;18.688;2023-04-24T03:23:15;99859.75;;;10.41;81.77
75298;BME280;63896;45.990;18.688;2023-04-24T03:26:18;99861.59;;;10.41;82.29
75298;BME280;63896;45.990;18.688;2023-04-24T03:29:35;99861.59;;;10.41;82.25
75298;BME280;63896;45.990;18.688;2023-04-24T03:32:38;99873.56;;;10.43;81.87
75298;BME280;63896;45.990;18.688;2023-04-24T03:35:44;99863.22;;;10.42;82.10
75298;BME280;63896;45.990;18.688;2023-04-24T03:38:47;99858.13;;;10.40;82.16
75298;BME280;63896;45.990;18.688;2023-04-24T03:42:03;99855.47;;;10.40;81.77
75298;BME280;63896;45.990;18.688;2023-04-24T03:45:17;99858.78;;;10.36;81.77
75298;BME280;63896;45.990;18.688;2023-04-24T03:48:23;99856.81;;;10.31;82.83
75298;BME280;63896;45.990;18.688;2023-04-24T03:51:26;99856.38;;;10.34;82.49
75298;BME280;63896;45.990;18.688;2023-04-24T03:54:35;99865.16;;;10.35;82.42
75298;BME280;63896;45.990;18.688;2023-04-24T03:57:40;99858.78;;;10.36;82.36
75298;BME280;63896;45.990;18.688;2023-04-24T04:00:52;99856.28;;;10.41;82.00
75298;BME280;63896;45.990;18.688;2023-04-24T04:04:15;99849.38;;;10.51;81.92
75298;BME280;63896;45.990;18.688;2023-04-24T04:07:19;99854.38;;;10.60;81.19
75298;BME280;63896;45.990;18.688;2023-04-24T04:10:23;99865.38;;;10.86;80.99
75298;BME280;63896;45.990;18.688;2023-04-24T04:13:25;99857.31;;;10.93;80.61
75298;BME280;63896;45.990;18.688;2023-04-24T04:16:28;99861.94;;;11.09;80.14
75298;BME280;63896;45.990;18.688;2023-04-24T04:19:37;99858.81;;;11.24;79.39
75298;BME280;63896;45.990;18.688;2023-04-24T04:22:40;99864.50;;;11.39;78.91
75298;BME280;63896;45.990;18.688;2023-04-24T04:25:50;99852.44;;;11.60;77.51
75298;BME280;63896;45.990;18.688;2023-04-24T04:28:59;99851.19;;;11.62;77.08
75298;BME280;63896;45.990;18.688;2023-04-24T04:32:04;99844.59;;;11.65;77.34
75298;BME280;63896;45.990;18.688;2023-04-24T04:35:07;99846.31;;;11.59;79.19
75298;BME280;63896;45.990;18.688;2023-04-24T04:38:10;99836.97;;;11.68;78.26
75298;BME280;63896;45.990;18.688;2023-04-24T04:41:29;99841.13;;;11.76;77.42
75298;BME280;63896;45.990;18.688;2023-04-24T04:44:33;99852.16;;;11.96;77.39
75298;BME280;63896;45.990;18.688;2023-04-24T04:47:39;99856.06;;;12.05;78.15
75298;BME280;63896;45.990;18.688;2023-04-24T04:50:44;99856.25;;;12.15;77.71
75298;BME280;63896;45.990;18.688;2023-04-24T04:53:47;99865.25;;;12.26;77.11
75298;BME280;63896;45.990;18.688;2023-04-24T04:56:50;99855.50;;;12.31;77.00
75298;BME280;63896;45.990;18.688;2023-04-24T04:59:54;99864.56;;;12.47;76.45
75298;BME280;63896;45.990;18.688;2023-04-24T05:03:11;99867.97;;;12.59;75.61
75298;BME280;63896;45.990;18.688;2023-04-24T05:06:28;99870.50;;;12.66;75.57
75298;BME280;63896;45.990;18.688;2023-04-24T05:09:31;99876.13;;;12.86;74.48
75298;BME280;63896;45.990;18.688;2023-04-24T05:12:37;99876.00;;;12.93;74.24
75298;BME280;63896;45.990;18.688;2023-04-24T05:15:41;99873.41;;;12.81;74.85
75298;BME280;63896;45.990;18.688;2023-04-24T05:18:45;99869.84;;;12.92;72.71
75298;BME280;63896;45.990;18.688;2023-04-24T05:21:50;99870.09;;;12.90;72.89
75298;BME280;63896;45.990;18.688;2023-04-24T05:24:53;99870.03;;;12.85;72.03
75298;BME280;63896;45.990;18.688;2023-04-24T05:28:20;99874.78;;;13.00;72.13
75298;BME280;63896;45.990;18.688;2023-04-24T05:31:35;99881.09;;;13.11;71.87
75298;BME280;63896;45.990;18.688;2023-04-24T05:34:38;99875.97;;;13.09;71.57
75298;BME280;63896;45.990;18.688;2023-04-24T05:37:47;99884.66;;;13.16;70.27
75298;BME280;63896;45.990;18.688;2023-04-24T05:40:58;99881.50;;;13.19;70.13
75298;BME280;63896;45.990;18.688;2023-04-24T05:44:01;99892.31;;;13.29;69.58
75298;BME280;63896;45.990;18.688;2023-04-24T05:47:04;99890.03;;;13.21;69.84
75298;BME280;63896;45.990;18.688;2023-04-24T05:50:08;99899.88;;;13.04;70.42
75298;BME280;63896;45.990;18.688;2023-04-24T05:53:10;99889.94;;;13.00;71.44
75298;BME280;63896;45.990;18.688;2023-04-24T05:56:15;99899.38;;;12.90;74.25
75298;BME280;63896;45.990;18.688;2023-04-24T05:59:18;99904.47;;;12.92;72.85
75298;BME280;63896;45.990;18.688;2023-04-24T06:02:23;99907.03;;;12.87;73.38
75298;BME280;63896;45.990;18.688;2023-04-24T06:05:27;99909.41;;;13.00;73.30
75298;BME280;63896;45.990;18.688;2023-04-24T06:08:30;99904.41;;;13.37;71.42
75298;BME280;63896;45.990;18.688;2023-04-24T06:11:33;99912.88;;;13.17;73.26
75298;BME280;63896;45.990;18.688;2023-04-24T06:14:37;99891.84;;;13.16;73.83
75298;BME280;63896;45.990;18.688;2023-04-24T06:17:57;99897.50;;;13.19;74.43
75298;BME280;63896;45.990;18.688;2023-04-24T06:21:00;99905.88;;;13.28;74.81
75298;BME280;63896;45.990;18.688;2023-04-24T06:24:05;99902.47;;;13.49;73.44
75298;BME280;63896;45.990;18.688;2023-04-24T06:27:08;99906.13;;;13.43;74.14
75298;BME280;63896;45.990;18.688;2023-04-24T06:30:11;99900.19;;;13.41;75.56
75298;BME280;63896;45.990;18.688;2023-04-24T06:33:16;99905.13;;;13.32;75.41
75298;BME280;63896;45.990;18.688;2023-04-24T06:36:23;99915.22;;;13.47;76.30
75298;BME280;63896;45.990;18.688;2023-04-24T06:39:26;99906.38;;;13.63;75.18
75298;BME280;63896;45.990;18.688;2023-04-24T06:42:29;99911.25;;;13.88;74.31
75298;BME280;63896;45.990;18.688;2023-04-24T06:45:36;99922.47;;;14.33;72.65
75298;BME280;63896;45.990;18.688;2023-04-24T06:49:00;99914.19;;;14.52;71.19
75298;BME280;63896;45.990;18.688;2023-04-24T06:52:03;99915.03;;;14.14;72.84
75298;BME280;63896;45.990;18.688;2023-04-24T06:55:07;99919.03;;;14.11;72.86
75298;BME280;63896;45.990;18.688;2023-04-24T06:58:10;99913.53;;;14.45;71.37
75298;BME280;63896;45.990;18.688;2023-04-24T07:01:14;99911.81;;;14.55;71.62
75298;BME280;63896;45.990;18.688;2023-04-24T07:04:24;99917.59;;;14.47;72.53
75298;BME280;63896;45.990;18.688;2023-04-24T07:07:32;99923.59;;;14.59;72.68
75298;BME280;63896;45.990;18.688;2023-04-24T07:10:35;99924.22;;;14.71;72.68
75298;BME280;63896;45.990;18.688;2023-04-24T07:13:38;99926.34;;;14.96;72.25
75298;BME280;63896;45.990;18.688;2023-04-24T07:16:45;99931.56;;;14.81;74.69
75298;BME280;63896;45.990;18.688;2023-04-24T07:19:51;99927.91;;;14.92;73.56
75298;BME280;63896;45.990;18.688;2023-04-24T07:22:54;99932.41;;;15.18;73.39
75298;BME280;63896;45.990;18.688;2023-04-24T07:25:58;99929.06;;;15.01;75.04
75298;BME280;63896;45.990;18.688;2023-04-24T07:29:01;99937.44;;;14.83;76.12
75298;BME280;63896;45.990;18.688;2023-04-24T07:32:07;99934.94;;;14.98;77.12
75298;BME280;63896;45.990;18.688;2023-04-24T07:35:10;99937.69;;;14.82;77.68
75298;BME280;63896;45.990;18.688;2023-04-24T07:38:22;99944.81;;;14.98;77.68
75298;BME280;63896;45.990;18.688;2023-04-24T07:41:25;99943.25;;;15.07;76.51
75298;BME280;63896;45.990;18.688;2023-04-24T07:44:28;99943.03;;;15.08;75.53
75298;BME280;63896;45.990;18.688;2023-04-24T07:47:31;99952.91;;;15.08;74.91
75298;BME280;63896;45.990;18.688;2023-04-24T07:50:35;99950.75;;;15.10;75.44
75298;BME280;63896;45.990;18.688;2023-04-24T07:53:38;99952.03;;;15.02;78.41
75298;BME280;63896;45.990;18.688;2023-04-24T07:56:43;99953.22;;;14.85;79.16
75298;BME280;63896;45.990;18.688;2023-04-24T07:59:46;99951.06;;;14.82;78.28
75298;BME280;63896;45.990;18.688;2023-04-24T08:02:49;99954.25;;;14.57;80.37
75298;BME280;63896;45.990;18.688;2023-04-24T08:05:52;99963.97;;;14.41;82.14
75298;BME280;63896;45.990;18.688;2023-04-24T08:08:56;99955.00;;;14.30;83.03
75298;BME280;63896;45.990;18.688;2023-04-24T08:11:59;99969.38;;;14.29;84.03
75298;BME280;63896;45.990;18.688;2023-04-24T08:15:02;99969.91;;;14.26;84.31
75298;BME280;63896;45.990;18.688;2023-04-24T08:18:05;99975.81;;;14.28;85.00
75298;BME280;63896;45.990;18.688;2023-04-24T08:21:08;99985.28;;;14.19;86.47
75298;BME280;63896;45.990;18.688;2023-04-24T08:24:11;99987.44;;;14.22;86.55
75298;BME280;63896;45.990;18.688;2023-04-24T08:27:14;99991.56;;;14.30;86.36
75298;BME280;63896;45.990;18.688;2023-04-24T08:30:18;99987.59;;;14.32;86.01
75298;BME280;63896;45.990;18.688;2023-04-24T08:33:24;99992.34;;;14.47;85.04
75298;BME280;63896;45.990;18.688;2023-04-24T08:36:28;99985.38;;;14.46;86.05
75298;BME280;63896;45.990;18.688;2023-04-24T08:39:48;99989.03;;;14.62;85.52
75298;BME280;63896;45.990;18.688;2023-04-24T08:42:54;99978.56;;;14.55;88.07
75298;BME280;63896;45.990;18.688;2023-04-24T08:45:59;99989.91;;;14.46;89.02
75298;BME280;63896;45.990;18.688;2023-04-24T08:49:03;99991.03;;;14.50;89.71
75298;BME280;63896;45.990;18.688;2023-04-24T08:52:07;99986.44;;;14.45;90.00
75298;BME280;63896;45.990;18.688;2023-04-24T08:55:10;99987.00;;;14.47;88.11
75298;BME280;63896;45.990;18.688;2023-04-24T08:58:15;99990.53;;;14.53;90.86
75298;BME280;63896;45.990;18.688;2023-04-24T09:01:20;99987.69;;;14.59;88.27
75298;BME280;63896;45.990;18.688;2023-04-24T09:09:56;99982.97;;;14.71;87.61
75298;BME280;63896;45.990;18.688;2023-04-24T09:12:59;99982.28;;;14.81;86.76
75298;BME280;63896;45.990;18.688;2023-04-24T09:16:07;99980.59;;;14.97;87.46
75298;BME280;63896;45.990;18.688;2023-04-24T09:19:10;99982.44;;;14.96;86.50
75298;BME280;63896;45.990;18.688;2023-04-24T09:22:13;99977.16;;;15.01;86.63
75298;BME280;63896;45.990;18.688;2023-04-24T09:25:16;99978.22;;;15.00;88.91
75298;BME280;63896;45.990;18.688;2023-04-24T09:28:19;99973.41;;;15.29;86.63
75298;BME280;63896;45.990;18.688;2023-04-24T09:31:29;99974.00;;;15.36;87.50
75298;BME280;63896;45.990;18.688;2023-04-24T09:34:32;99970.53;;;15.72;85.97
75298;BME280;63896;45.990;18.688;2023-04-24T09:37:40;99970.34;;;15.84;84.76
75298;BME280;63896;45.990;18.688;2023-04-24T09:40:44;99971.22;;;16.00;84.28
75298;BME280;63896;45.990;18.688;2023-04-24T09:44:11;99976.28;;;15.54;85.36
75298;BME280;63896;45.990;18.688;2023-04-24T09:47:14;99969.03;;;15.87;84.53
75298;BME280;63896;45.990;18.688;2023-04-24T09:50:17;99957.03;;;15.94;84.24
75298;BME280;63896;45.990;18.688;2023-04-24T09:53:30;99962.22;;;16.16;85.01
75298;BME280;63896;45.990;18.688;2023-04-24T09:56:35;99973.13;;;16.04;84.19
75298;BME280;63896;45.990;18.688;2023-04-24T09:59:57;99966.34;;;15.87;83.98
75298;BME280;63896;45.990;18.688;2023-04-24T10:03:02;99964.06;;;15.68;85.97
75298;BME280;63896;45.990;18.688;2023-04-24T10:06:06;99975.59;;;15.69;85.47
75298;BME280;63896;45.990;18.688;2023-04-24T10:09:12;99978.44;;;15.57;88.89
75298;BME280;63896;45.990;18.688;2023-04-24T10:12:16;99968.94;;;15.40;89.78
75298;BME280;63896;45.990;18.688;2023-04-24T10:15:20;99963.44;;;15.51;88.94
75298;BME280;63896;45.990;18.688;2023-04-24T10:18:24;99979.78;;;15.55;89.36
75298;BME280;63896;45.990;18.688;2023-04-24T10:21:28;99964.28;;;15.57;89.36
75298;BME280;63896;45.990;18.688;2023-04-24T10:24:31;99972.28;;;15.57;88.98
75298;BME280;63896;45.990;18.688;2023-04-24T10:27:36;99975.78;;;15.57;90.30
75298;BME280;63896;45.990;18.688;2023-04-24T10:30:42;99969.13;;;15.60;89.64
75298;BME280;63896;45.990;18.688;2023-04-24T10:33:46;99969.69;;;15.67;89.05
75298;BME280;63896;45.990;18.688;2023-04-24T10:36:52;99968.03;;;15.61;86.46
75298;BME280;63896;45.990;18.688;2023-04-24T10:40:07;99975.03;;;15.35;86.71
75298;BME280;63896;45.990;18.688;2023-04-24T10:43:24;99966.56;;;15.43;87.63
75298;BME280;63896;45.990;18.688;2023-04-24T10:46:30;99966.94;;;15.52;87.58
75298;BME280;63896;45.990;18.688;2023-04-24T10:49:33;99967.47;;;15.54;82.65
75298;BME280;63896;45.990;18.688;2023-04-24T10:52:46;99966.81;;;15.42;86.21
75298;BME280;63896;45.990;18.688;2023-04-24T10:59:07;99960.00;;;15.56;85.56
75298;BME280;63896;45.990;18.688;2023-04-24T11:02:15;99952.44;;;15.90;86.44
75298;BME280;63896;45.990;18.688;2023-04-24T11:05:19;99949.00;;;15.94;84.33
75298;BME280;63896;45.990;18.688;2023-04-24T11:08:23;99947.00;;;15.75;85.26
75298;BME280;63896;45.990;18.688;2023-04-24T11:11:29;99946.16;;;16.16;85.46
75298;BME280;63896;45.990;18.688;2023-04-24T11:15:00;99948.06;;;16.20;82.79
75298;BME280;63896;45.990;18.688;2023-04-24T11:18:04;99947.91;;;15.95;83.79
75298;BME280;63896;45.990;18.688;2023-04-24T11:21:16;99941.47;;;15.91;83.06
75298;BME280;63896;45.990;18.688;2023-04-24T11:27:44;99927.84;;;15.93;86.93
75298;BME280;63896;45.990;18.688;2023-04-24T11:30:51;99931.31;;;15.93;85.51
75298;BME280;63896;45.990;18.688;2023-04-24T11:33:56;99918.66;;;15.73;86.30
75298;BME280;63896;45.990;18.688;2023-04-24T11:37:41;99913.91;;;15.49;84.72
75298;BME280;63896;45.990;18.688;2023-04-24T11:40:56;99915.38;;;15.30;87.68
75298;BME280;63896;45.990;18.688;2023-04-24T11:43:59;99912.72;;;15.30;83.82
75298;BME280;63896;45.990;18.688;2023-04-24T11:47:05;99905.03;;;15.38;84.25
75298;BME280;63896;45.990;18.688;2023-04-24T11:50:29;99902.00;;;15.24;85.11
75298;BME280;63896;45.990;18.688;2023-04-24T11:53:33;99896.78;;;15.45;88.06
75298;BME280;63896;45.990;18.688;2023-04-24T11:56:39;99909.00;;;15.72;88.37
75298;BME280;63896;45.990;18.688;2023-04-24T11:59:47;99905.19;;;16.15;84.54
75298;BME280;63896;45.990;18.688;2023-04-24T12:02:50;99916.38;;;15.97;86.92
75298;BME280;63896;45.990;18.688;2023-04-24T12:06:14;99919.66;;;15.62;86.25
75298;BME280;63896;45.990;18.688;2023-04-24T12:09:17;99918.13;;;15.71;85.27
75298;BME280;63896;45.990;18.688;2023-04-24T12:12:20;99918.69;;;15.42;85.92
75298;BME280;63896;45.990;18.688;2023-04-24T12:15:27;99906.41;;;15.46;85.79
75298;BME280;63896;45.990;18.688;2023-04-24T12:18:30;99907.44;;;15.40;85.38
75298;BME280;63896;45.990;18.688;2023-04-24T12:21:33;99904.34;;;15.16;86.58
75298;BME280;63896;45.990;18.688;2023-04-24T12:25:04;99896.56;;;15.14;87.85
75298;BME280;63896;45.990;18.688;2023-04-24T12:28:12;99894.31;;;15.38;88.45
75298;BME280;63896;45.990;18.688;2023-04-24T12:31:16;99901.53;;;15.38;87.96
75298;BME280;63896;45.990;18.688;2023-04-24T12:34:21;99889.91;;;15.54;86.33
75298;BME280;63896;45.990;18.688;2023-04-24T12:37:25;99889.41;;;15.57;86.76
75298;BME280;63896;45.990;18.688;2023-04-24T12:41:07;99888.53;;;15.93;85.16
75298;BME280;63896;45.990;18.688;2023-04-24T12:44:10;99878.75;;;16.29;84.56
75298;BME280;63896;45.990;18.688;2023-04-24T12:47:16;99884.59;;;16.26;82.89
75298;BME280;63896;45.990;18.688;2023-04-24T12:50:20;99873.69;;;16.48;81.76
75298;BME280;63896;45.990;18.688;2023-04-24T12:53:22;99864.38;;;16.96;80.42
75298;BME280;63896;45.990;18.688;2023-04-24T12:56:25;99857.13;;;17.11;78.84
75298;BME280;63896;45.990;18.688;2023-04-24T12:59:28;99863.84;;;17.09;79.45
75298;BME280;63896;45.990;18.688;2023-04-24T13:02:31;99857.09;;;17.32;78.57
75298;BME280;63896;45.990;18.688;2023-04-24T13:05:35;99857.56;;;17.69;75.42
75298;BME280;63896;45.990;18.688;2023-04-24T13:08:38;99856.25;;;17.67;76.45
75298;BME280;63896;45.990;18.688;2023-04-24T13:11:41;99852.84;;;17.26;76.15
75298;BME280;63896;45.990;18.688;2023-04-24T13:14:44;99850.00;;;17.81;72.14
75298;BME280;63896;45.990;18.688;2023-04-24T13:17:48;99838.53;;;18.25;70.82
75298;BME280;63896;45.990;18.688;2023-04-24T13:20:51;99830.84;;;18.86;67.97
75298;BME280;63896;45.990;18.688;2023-04-24T13:23:54;99829.00;;;18.81;68.30
75298;BME280;63896;45.990;18.688;2023-04-24T13:26:57;99822.66;;;19.01;67.63
75298;BME280;63896;45.990;18.688;2023-04-24T13:30:00;99806.91;;;18.50;67.93
75298;BME280;63896;45.990;18.688;2023-04-24T13:33:05;99801.19;;;18.28;70.48
75298;BME280;63896;45.990;18.688;2023-04-24T13:36:08;99799.63;;;18.17;69.81
75298;BME280;63896;45.990;18.688;2023-04-24T13:39:12;99807.50;;;17.29;72.04
75298;BME280;63896;45.990;18.688;2023-04-24T13:42:14;99803.47;;;17.27;72.58
75298;BME280;63896;45.990;18.688;2023-04-24T13:45:17;99799.47;;;17.29;72.24
75298;BME280;63896;45.990;18.688;2023-04-24T13:48:26;99787.69;;;17.25;72.99
75298;BME280;63896;45.990;18.688;2023-04-24T13:51:30;99780.75;;;17.14;73.62
75298;BME280;63896;45.990;18.688;2023-04-24T13:54:33;99779.94;;;17.03;73.87
75298;BME280;63896;45.990;18.688;2023-04-24T13:57:35;99771.16;;;16.62;75.62
75298;BME280;63896;45.990;18.688;2023-04-24T14:00:39;99775.13;;;16.50;76.97
75298;BME280;63896;45.990;18.688;2023-04-24T14:03:42;99777.59;;;16.56;76.87
75298;BME280;63896;45.990;18.688;2023-04-24T14:06:48;99766.31;;;16.29;76.49
75298;BME280;63896;45.990;18.688;2023-04-24T14:09:51;99774.34;;;16.39;76.72
75298;BME280;63896;45.990;18.688;2023-04-24T14:12:57;99774.38;;;16.59;76.16
75298;BME280;63896;45.990;18.688;2023-04-24T14:16:00;99757.22;;;16.91;75.05
75298;BME280;63896;45.990;18.688;2023-04-24T14:19:03;99760.41;;;17.03;75.09
75298;BME280;63896;45.990;18.688;2023-04-24T14:22:11;99761.22;;;16.93;75.10
75298;BME280;63896;45.990;18.688;2023-04-24T14:25:15;99752.63;;;16.96;73.97
75298;BME280;63896;45.990;18.688;2023-04-24T14:28:20;99750.44;;;17.08;73.89
75298;BME280;63896;45.990;18.688;2023-04-24T14:31:26;99747.22;;;17.22;73.82
75298;BME280;63896;45.990;18.688;2023-04-24T14:34:29;99752.25;;;17.33;73.10
75298;BME280;63896;45.990;18.688;2023-04-24T14:37:32;99750.41;;;17.29;73.08
75298;BME280;63896;45.990;18.688;2023-04-24T14:40:35;99734.63;;;17.12;72.54
75298;BME280;63896;45.990;18.688;2023-04-24T14:43:58;99734.97;;;16.85;72.34
75298;BME280;63896;45.990;18.688;2023-04-24T14:47:01;99738.47;;;16.76;71.84
75298;BME280;63896;45.990;18.688;2023-04-24T14:50:05;99732.53;;;16.89;71.27
75298;BME280;63896;45.990;18.688;2023-04-24T14:53:08;99723.19;;;16.46;72.65
75298;BME280;63896;45.990;18.688;2023-04-24T14:56:11;99730.97;;;16.47;72.20
75298;BME280;63896;45.990;18.688;2023-04-24T14:59:14;99731.22;;;16.56;71.64
75298;BME280;63896;45.990;18.688;2023-04-24T15:02:17;99735.22;;;16.84;70.98
75298;BME280;63896;45.990;18.688;2023-04-24T15:05:23;99738.19;;;16.87;71.20
75298;BME280;63896;45.990;18.688;2023-04-24T15:08:28;99739.22;;;16.96;70.32
75298;BME280;63896;45.990;18.688;2023-04-24T15:11:31;99736.06;;;16.79;71.22
75298;BME280;63896;45.990;18.688;2023-04-24T15:14:34;99739.53;;;16.64;71.80
75298;BME280;63896;45.990;18.688;2023-04-24T15:17:37;99737.16;;;16.63;72.11
75298;BME280;63896;45.990;18.688;2023-04-24T15:20:40;99737.94;;;16.68;71.81
75298;BME280;63896;45.990;18.688;2023-04-24T15:23:44;99739.28;;;16.61;71.94
75298;BME280;63896;45.990;18.688;2023-04-24T15:26:47;99740.88;;;16.52;73.18
75298;BME280;63896;45.990;18.688;2023-04-24T15:29:50;99744.34;;;16.42;74.03
75298;BME280;63896;45.990;18.688;2023-04-24T15:32:53;99745.66;;;16.30;74.10
75298;BME280;63896;45.990;18.688;2023-04-24T15:35:56;99740.34;;;16.25;74.51
75298;BME280;63896;45.990;18.688;2023-04-24T15:39:01;99736.84;;;16.19;74.14
75298;BME280;63896;45.990;18.688;2023-04-24T15:42:07;99738.97;;;15.97;74.80
75298;BME280;63896;45.990;18.688;2023-04-24T15:45:10;99734.94;;;16.04;75.65
75298;BME280;63896;45.990;18.688;2023-04-24T15:48:14;99739.19;;;15.85;76.25
75298;BME280;63896;45.990;18.688;2023-04-24T15:51:16;99736.22;;;15.77;76.88
75298;BME280;63896;45.990;18.688;2023-04-24T15:54:19;99736.22;;;15.66;77.76
75298;BME280;63896;45.990;18.688;2023-04-24T15:57:22;99732.97;;;15.54;78.22
75298;BME280;63896;45.990;18.688;2023-04-24T16:00:25;99725.47;;;15.51;78.27
75298;BME280;63896;45.990;18.688;2023-04-24T16:03:31;99722.44;;;15.33;79.51
75298;BME280;63896;45.990;18.688;2023-04-24T16:06:35;99718.97;;;15.42;79.78
75298;BME280;63896;45.990;18.688;2023-04-24T16:09:38;99701.81;;;15.33;80.20
75298;BME280;63896;45.990;18.688;2023-04-24T16:12:40;99704.97;;;15.15;81.47
75298;BME280;63896;45.990;18.688;2023-04-24T16:15:44;99701.94;;;14.96;82.12
75298;BME280;63896;45.990;18.688;2023-04-24T16:18:48;99691.50;;;14.90;82.93
75298;BME280;63896;45.990;18.688;2023-04-24T16:21:52;99677.34;;;14.89;83.43